Time;durP1;ratioP1;P1;durP2;ratioP2;P2;SDS_P1;SDS_P2;PMS_P1;PMS_P2;Temp;Humidity;BMP_temperature;BMP_pressure;BME280_temperature;BME280_humidity;BME280_pressure;Samples;Min_cycle;Max_cycle;Signal;HPM_P1;HPM_P2
2021/09/28 00:02:39;;;;;;;6.93;0.55;;;;;;;9.07;100.00;99757.19;5053842;28;20040;-51
2021/09/28 00:05:44;;;;;;;1.83;0.45;;;;;;;9.26;100.00;99760.66;5053542;28;20138;-51
2021/09/28 00:08:47;;;;;;;0.32;0.32;;;;;;;9.14;100.00;99762.38;5053129;28;20504;-51
2021/09/28 00:11:51;;;;;;;0.30;0.30;;;;;;;9.23;100.00;99762.34;5053827;28;20047;-51
2021/09/28 00:14:54;;;;;;;0.77;0.52;;;;;;;9.26;100.00;99764.22;5053455;28;20095;-51
2021/09/28 00:17:57;;;;;;;8.50;0.68;;;;;;;9.15;100.00;99761.94;5053825;28;20043;-51
2021/09/28 00:21:00;;;;;;;0.40;0.40;;;;;;;9.22;100.00;99769.16;5053768;28;20094;-50
2021/09/28 00:24:04;;;;;;;0.28;0.28;;;;;;;9.23;100.00;99767.91;5053485;28;20222;-50
2021/09/28 00:27:07;;;;;;;0.30;0.30;;;;;;;9.26;100.00;99771.78;5053487;28;20075;-51
2021/09/28 00:30:10;;;;;;;9.27;1.10;;;;;;;9.33;100.00;99768.66;5053218;28;20084;-50
2021/09/28 00:33:13;;;;;;;0.40;0.40;;;;;;;9.33;100.00;99766.66;5053215;28;20114;-51
2021/09/28 00:36:16;;;;;;;0.60;0.60;;;;;;;9.32;100.00;99767.09;5053281;28;20133;-50
2021/09/28 00:39:18;;;;;;;0.90;0.80;;;;;;;9.44;100.00;99777.28;5053206;28;20128;-51
2021/09/28 00:42:21;;;;;;;0.20;0.20;;;;;;;9.58;100.00;99774.56;5053053;28;20044;-51
2021/09/28 00:45:25;;;;;;;1.30;0.90;;;;;;;9.32;100.00;99772.66;5052773;28;20451;-51
2021/09/28 00:48:28;;;;;;;0.70;0.70;;;;;;;9.35;100.00;99777.31;5052718;28;20146;-51
2021/09/28 00:51:31;;;;;;;5.43;1.05;;;;;;;9.27;100.00;99776.09;5052417;28;20048;-51
2021/09/28 00:54:37;;;;;;;0.20;0.20;;;;;;;9.22;100.00;99765.63;5052128;28;20043;-51
2021/09/28 00:57:40;;;;;;;0.85;0.30;;;;;;;9.13;100.00;99766.41;5056452;28;20082;-51
2021/09/28 01:00:44;;;;;;;0.35;0.35;;;;;;;9.21;100.00;99777.94;5072869;28;20101;-51
2021/09/28 01:03:47;;;;;;;0.28;0.28;;;;;;;9.29;100.00;99774.38;5072207;28;20043;-48
2021/09/28 01:06:51;;;;;;;0.20;0.20;;;;;;;9.36;100.00;99774.03;5072733;28;20098;-47
2021/09/28 01:09:53;;;;;;;1.65;0.75;;;;;;;9.40;100.00;99773.91;5072807;28;20101;-48
2021/09/28 01:12:56;;;;;;;0.45;0.45;;;;;;;9.46;100.00;99772.78;5072642;28;20553;-48
2021/09/28 01:15:59;;;;;;;3.65;0.68;;;;;;;9.63;100.00;99775.94;5072637;28;20077;-48
2021/09/28 01:19:02;;;;;;;3.13;1.30;;;;;;;9.72;100.00;99779.44;5072700;28;20062;-49
2021/09/28 01:22:07;;;;;;;0.20;0.20;;;;;;;9.68;100.00;99772.53;5072421;28;20048;-48
2021/09/28 01:25:11;;;;;;;1.33;0.75;;;;;;;9.69;100.00;99772.03;5072706;28;20075;-48
2021/09/28 01:28:14;;;;;;;4.25;0.60;;;;;;;9.88;100.00;99775.47;5072427;28;20507;-47
2021/09/28 01:31:18;;;;;;;0.22;0.22;;;;;;;9.63;100.00;99775.94;5072863;28;20055;-47
2021/09/28 01:34:21;;;;;;;1.90;0.75;;;;;;;9.25;100.00;99779.31;5072305;28;20067;-48
2021/09/28 01:37:24;;;;;;;3.50;0.77;;;;;;;9.63;100.00;99781.50;5072477;28;20043;-48
2021/09/28 01:40:27;;;;;;;1.10;0.30;;;;;;;9.58;100.00;99771.00;5072264;28;20064;-48
2021/09/28 01:43:30;;;;;;;0.30;0.30;;;;;;;9.36;100.00;99774.03;5071954;28;20075;-48
2021/09/28 01:46:35;;;;;;;0.30;0.30;;;;;;;9.49;100.00;99782.94;5072528;28;20110;-48
2021/09/28 01:49:38;;;;;;;2.92;0.47;;;;;;;9.79;100.00;99778.31;5072473;28;20036;-48
2021/09/28 01:52:40;;;;;;;5.47;0.47;;;;;;;9.80;100.00;99763.19;5071921;28;20062;-47
2021/09/28 01:55:43;;;;;;;7.18;1.50;;;;;;;9.83;100.00;99757.44;5072259;28;20040;-48
2021/09/28 01:58:47;;;;;;;0.32;0.32;;;;;;;9.74;100.00;99765.06;5072171;28;20516;-48
2021/09/28 02:01:49;;;;;;;7.88;0.75;;;;;;;9.68;100.00;99764.94;5072504;28;20610;-48
2021/09/28 02:04:52;;;;;;;2.97;0.50;;;;;;;9.03;100.00;99762.13;5072246;28;20039;-48
2021/09/28 02:07:55;;;;;;;0.40;0.40;;;;;;;8.69;100.00;99771.59;5072083;28;20146;-48
2021/09/28 02:10:58;;;;;;;0.45;0.30;;;;;;;8.61;100.00;99753.72;5074383;28;20066;-48
2021/09/28 02:14:03;;;;;;;0.30;0.30;;;;;;;8.75;100.00;99750.28;5075563;28;20503;-48
2021/09/28 02:17:07;;;;;;;0.75;0.30;;;;;;;8.45;100.00;99762.34;5075065;28;20055;-48
2021/09/28 02:20:11;;;;;;;1.13;0.30;;;;;;;8.46;100.00;99757.59;5075902;28;20439;-48
2021/09/28 02:23:13;;;;;;;0.30;0.30;;;;;;;8.58;100.00;99754.63;5075437;28;20549;-48
2021/09/28 02:26:16;;;;;;;0.30;0.30;;;;;;;9.00;100.00;99757.50;5075902;28;20503;-48
2021/09/28 02:29:19;;;;;;;2.35;0.40;;;;;;;8.68;100.00;99750.63;5075409;28;20043;-48
2021/09/28 02:32:22;;;;;;;0.50;0.50;;;;;;;9.01;100.00;99748.69;5075517;28;20079;-48
2021/09/28 02:35:25;;;;;;;2.95;0.82;;;;;;;9.21;100.00;99750.16;5075254;28;20044;-48
2021/09/28 02:38:28;;;;;;;0.85;0.63;;;;;;;9.12;100.00;99743.41;5075414;28;20085;-48
2021/09/28 02:41:31;;;;;;;0.30;0.30;;;;;;;9.12;100.00;99748.97;5075232;28;20043;-48
2021/09/28 02:44:35;;;;;;;0.35;0.32;;;;;;;8.99;100.00;99751.16;5075244;28;20047;-47
2021/09/28 02:47:38;;;;;;;0.50;0.50;;;;;;;9.13;100.00;99750.53;5074919;28;20132;-47
2021/09/28 02:50:41;;;;;;;1.00;0.80;;;;;;;8.91;100.00;99752.75;5074072;28;20432;-48
2021/09/28 02:53:44;;;;;;;0.50;0.50;;;;;;;8.86;100.00;99750.59;5074901;28;20090;-48
2021/09/28 02:56:47;;;;;;;0.50;0.50;;;;;;;9.02;100.00;99752.25;5074604;28;20106;-48
2021/09/28 02:59:49;;;;;;;0.22;0.22;;;;;;;9.15;100.00;99753.59;5054931;28;20113;-48
2021/09/28 03:02:52;;;;;;;0.30;0.30;;;;;;;9.35;100.00;99760.63;5054818;28;20146;-48
2021/09/28 03:05:55;;;;;;;0.77;0.35;;;;;;;9.52;100.00;99759.00;5054967;28;20048;-48
2021/09/28 03:08:58;;;;;;;0.30;0.30;;;;;;;9.71;100.00;99752.09;5054820;28;20095;-48
2021/09/28 03:12:03;;;;;;;0.30;0.30;;;;;;;9.83;100.00;99754.66;5054538;28;20063;-49
2021/09/28 03:15:06;;;;;;;1.70;0.47;;;;;;;9.96;100.00;99748.88;5054758;28;20059;-48
2021/09/28 03:18:09;;;;;;;0.95;0.95;;;;;;;10.09;100.00;99752.16;5054444;28;20056;-48
2021/09/28 03:21:12;;;;;;;0.52;0.52;;;;;;;10.12;100.00;99756.81;5054290;28;20040;-48
2021/09/28 03:24:15;;;;;;;1.10;0.60;;;;;;;10.58;100.00;99746.84;5054372;28;20068;-48
2021/09/28 03:27:18;;;;;;;2.53;1.05;;;;;;;10.78;100.00;99751.00;5054479;28;20094;-48
2021/09/28 03:30:20;;;;;;;0.20;0.20;;;;;;;10.99;100.00;99744.28;5054142;28;20078;-48
2021/09/28 03:33:23;;;;;;;0.10;0.10;;;;;;;10.94;100.00;99737.34;5054275;28;20044;-48
2021/09/28 03:36:26;;;;;;;0.32;0.32;;;;;;;11.01;100.00;99736.19;5054393;28;20587;-48
2021/09/28 03:39:29;;;;;;;0.30;0.30;;;;;;;11.32;100.00;99731.66;5054003;28;20504;-48
2021/09/28 03:42:32;;;;;;;0.65;0.30;;;;;;;11.27;100.00;99737.91;5054222;28;20076;-48
2021/09/28 03:45:36;;;;;;;0.40;0.40;;;;;;;11.42;100.00;99735.84;5053092;28;20401;-48
2021/09/28 03:48:38;;;;;;;1.98;0.50;;;;;;;11.51;100.00;99737.75;5054002;28;20086;-48
2021/09/28 03:51:41;;;;;;;0.17;0.17;;;;;;;11.70;100.00;99732.72;5053814;28;20120;-48
2021/09/28 03:54:44;;;;;;;0.13;0.13;;;;;;;11.76;100.00;99733.59;5053902;28;20066;-48
2021/09/28 03:57:48;;;;;;;0.38;0.32;;;;;;;11.73;100.00;99729.75;5058826;28;20085;-48
2021/09/28 04:00:51;;;;;;;0.38;0.38;;;;;;;11.52;100.00;99735.75;5073590;28;20123;-48
2021/09/28 04:03:54;;;;;;;0.35;0.32;;;;;;;11.49;100.00;99726.31;5073632;28;20040;-48
2021/09/28 04:06:59;;;;;;;0.45;0.40;;;;;;;11.51;100.00;99734.97;5073765;28;20499;-48
2021/09/28 04:10:03;;;;;;;0.52;0.47;;;;;;;11.62;100.00;99728.78;5073727;28;20055;-48
2021/09/28 04:13:11;;;;;;;2.10;0.57;;;;;;;11.72;100.00;99722.63;5073045;28;20055;-48
2021/09/28 04:16:16;;;;;;;2.17;0.93;;;;;;;11.74;100.00;99725.69;5073455;28;20063;-48
2021/09/28 04:19:19;;;;;;;0.45;0.45;;;;;;;11.76;100.00;99734.34;5073488;28;20507;-48
2021/09/28 04:22:23;;;;;;;1.65;0.82;;;;;;;11.84;100.00;99724.31;5073079;28;20552;-48
2021/09/28 04:25:25;;;;;;;0.50;0.50;;;;;;;11.89;100.00;99720.06;5073421;28;20094;-48
2021/09/28 04:28:29;;;;;;;10.48;0.70;;;;;;;11.90;100.00;99727.94;5073125;28;20039;-48
2021/09/28 04:31:32;;;;;;;3.33;0.70;;;;;;;11.93;100.00;99720.63;5073348;28;20048;-48
2021/09/28 04:34:35;;;;;;;6.93;0.40;;;;;;;11.93;100.00;99726.94;5072360;28;20043;-48
2021/09/28 04:37:38;;;;;;;0.63;0.63;;;;;;;11.92;100.00;99731.00;5073052;28;20044;-48
2021/09/28 04:40:41;;;;;;;0.43;0.43;;;;;;;11.95;100.00;99724.44;5072835;28;20047;-48
2021/09/28 04:43:44;;;;;;;0.45;0.45;;;;;;;11.98;100.00;99729.06;5073014;28;20122;-48
2021/09/28 04:46:47;;;;;;;0.30;0.30;;;;;;;11.97;100.00;99727.53;5071830;28;20229;-48
2021/09/28 04:49:50;;;;;;;3.60;0.95;;;;;;;11.91;100.00;99729.47;5072943;28;20083;-48
2021/09/28 04:52:53;;;;;;;0.57;0.45;;;;;;;11.90;100.00;99730.72;5072760;28;20108;-48
2021/09/28 04:55:56;;;;;;;0.65;0.50;;;;;;;11.87;100.00;99728.91;5073008;28;20043;-48
2021/09/28 04:58:59;;;;;;;2.75;1.00;;;;;;;11.81;100.00;99736.44;5073002;28;20515;-48
2021/09/28 05:02:02;;;;;;;1.08;0.40;;;;;;;11.86;100.00;99744.13;5072990;28;20124;-48
2021/09/28 05:05:05;;;;;;;3.10;0.95;;;;;;;11.87;100.00;99737.28;5072354;28;20051;-48
2021/09/28 05:08:08;;;;;;;1.17;0.60;;;;;;;11.90;100.00;99738.34;5073011;28;20471;-48
2021/09/28 05:11:13;;;;;;;5.70;0.60;;;;;;;11.92;100.00;99736.59;5072688;28;20047;-48
2021/09/28 05:14:16;;;;;;;0.52;0.50;;;;;;;11.95;100.00;99738.38;5072329;28;20047;-48
2021/09/28 05:17:19;;;;;;;4.47;0.82;;;;;;;11.88;100.00;99744.41;5072429;28;20404;-49
2021/09/28 05:20:22;;;;;;;0.22;0.22;;;;;;;11.89;100.00;99737.56;5072466;28;20428;-48
2021/09/28 05:23:25;;;;;;;1.85;0.40;;;;;;;11.89;100.00;99745.94;5072576;28;20051;-48
2021/09/28 05:26:28;;;;;;;0.60;0.43;;;;;;;11.91;100.00;99740.63;5072527;28;20507;-48
2021/09/28 05:29:32;;;;;;;0.50;0.50;;;;;;;11.92;100.00;99747.75;5072524;28;20048;-48
2021/09/28 05:32:34;;;;;;;0.20;0.20;;;;;;;11.91;100.00;99742.66;5072881;28;20047;-48
2021/09/28 05:35:37;;;;;;;0.88;0.50;;;;;;;11.93;100.00;99738.13;5072666;28;20039;-48
2021/09/28 05:38:40;;;;;;;0.47;0.45;;;;;;;12.01;100.00;99728.09;5072214;28;20110;-48
2021/09/28 05:41:43;;;;;;;3.50;0.40;;;;;;;12.02;100.00;99735.19;5072101;28;20389;-51
2021/09/28 05:44:46;;;;;;;0.55;0.55;;;;;;;12.08;100.00;99733.22;5073211;28;20047;-48
2021/09/28 05:47:50;;;;;;;0.20;0.20;;;;;;;12.17;100.00;99735.13;5075703;28;20067;-48
2021/09/28 05:50:53;;;;;;;4.13;0.85;;;;;;;12.24;100.00;99728.34;5076270;28;20097;-48
2021/09/28 05:53:59;;;;;;;1.50;0.45;;;;;;;12.28;100.00;99729.66;5076189;28;20483;-48
2021/09/28 05:57:02;;;;;;;3.60;1.13;;;;;;;12.43;100.00;99729.59;5076279;28;20040;-48
2021/09/28 06:00:06;;;;;;;1.60;0.55;;;;;;;12.47;100.00;99718.97;5055507;28;20121;-48
2021/09/28 06:03:09;;;;;;;1.02;0.43;;;;;;;12.45;100.00;99710.31;5055993;28;20124;-48
2021/09/28 06:06:12;;;;;;;1.33;0.60;;;;;;;12.48;100.00;99720.50;5056064;28;20052;-48
2021/09/28 06:09:15;;;;;;;0.22;0.22;;;;;;;12.50;100.00;99712.38;5055720;28;20512;-48
2021/09/28 06:12:18;;;;;;;0.30;0.30;;;;;;;12.49;100.00;99710.88;5055733;28;20087;-48
2021/09/28 06:15:21;;;;;;;0.40;0.30;;;;;;;12.55;100.00;99717.28;5055786;28;20133;-48
2021/09/28 06:18:24;;;;;;;1.48;0.40;;;;;;;12.60;100.00;99713.78;5055911;28;20547;-47
2021/09/28 06:21:27;;;;;;;0.60;0.60;;;;;;;12.63;100.00;99715.56;5055548;28;20124;-47
2021/09/28 06:24:32;;;;;;;7.53;1.02;;;;;;;11.62;100.00;99712.81;5055448;28;20067;-47
2021/09/28 06:27:36;;;;;;;0.30;0.30;;;;;;;11.38;100.00;99709.44;5055613;28;20504;-47
2021/09/28 06:30:39;;;;;;;3.85;0.68;;;;;;;11.42;100.00;99715.56;5055370;28;20044;-48
2021/09/28 06:33:42;;;;;;;0.15;0.15;;;;;;;11.80;100.00;99718.16;5055577;28;20657;-48
2021/09/28 06:36:44;;;;;;;10.52;1.00;;;;;;;12.65;100.00;99701.88;5055620;28;20587;-48
2021/09/28 06:39:47;;;;;;;0.40;0.32;;;;;;;12.77;100.00;99692.34;5055192;28;20106;-48
2021/09/28 06:42:50;;;;;;;0.30;0.30;;;;;;;12.77;100.00;99686.75;5055008;28;20397;-48
2021/09/28 06:45:53;;;;;;;0.52;0.52;;;;;;;12.76;100.00;99683.19;5054921;28;20047;-48
2021/09/28 06:48:56;;;;;;;3.67;2.13;;;;;;;12.80;100.00;99680.16;5055288;28;20060;-48
2021/09/28 06:51:59;;;;;;;4.32;1.77;;;;;;;12.89;100.00;99680.75;5054737;28;20521;-48
2021/09/28 06:55:04;;;;;;;0.90;0.90;;;;;;;12.97;100.00;99675.50;5060514;28;20116;-48
2021/09/28 06:58:07;;;;;;;8.70;1.00;;;;;;;13.09;100.00;99679.16;5063662;28;20499;-48
2021/09/28 07:01:10;;;;;;;1.25;0.80;;;;;;;13.25;100.00;99676.50;5074121;28;20047;-48
2021/09/28 07:04:12;;;;;;;3.72;0.90;;;;;;;13.46;100.00;99680.69;5073786;28;20078;-48
2021/09/28 07:07:15;;;;;;;2.83;0.80;;;;;;;13.48;100.00;99686.56;5074083;28;20499;-48
2021/09/28 07:10:18;;;;;;;3.22;0.85;;;;;;;13.62;100.00;99682.81;5072708;28;20593;-48
2021/09/28 07:13:21;;;;;;;0.50;0.50;;;;;;;13.56;100.00;99678.44;5072903;28;20127;-48
2021/09/28 07:16:24;;;;;;;1.70;0.68;;;;;;;13.54;100.00;99681.00;5070579;28;20044;-48
2021/09/28 07:19:27;;;;;;;4.40;1.08;;;;;;;13.44;100.00;99679.66;5070801;28;20035;-48
2021/09/28 07:22:31;;;;;;;2.88;1.90;;;;;;;13.40;100.00;99671.53;5071384;28;20119;-48
2021/09/28 07:25:34;;;;;;;8.57;1.67;;;;;;;13.54;100.00;99670.56;5072132;28;20114;-47
2021/09/28 07:28:38;;;;;;;1.60;0.68;;;;;;;13.61;100.00;99670.09;5073660;28;20051;-48
2021/09/28 07:31:41;;;;;;;0.40;0.38;;;;;;;13.40;100.00;99674.31;5072432;28;20058;-48
2021/09/28 07:34:44;;;;;;;2.08;0.32;;;;;;;13.57;100.00;99677.97;5070682;28;20049;-48
2021/09/28 07:37:47;;;;;;;9.57;1.00;;;;;;;13.88;100.00;99670.75;5073531;28;20047;-48
2021/09/28 07:40:51;;;;;;;1.73;0.45;;;;;;;14.15;100.00;99673.63;5072737;28;20393;-48
2021/09/28 07:43:54;;;;;;;6.95;1.13;;;;;;;14.35;100.00;99665.06;5073539;28;20031;-48
2021/09/28 07:46:58;;;;;;;1.67;0.32;;;;;;;14.50;100.00;99667.63;5072323;28;20093;-48
2021/09/28 07:50:02;;;;;;;0.52;0.52;;;;;;;14.53;100.00;99666.59;5073396;28;20079;-48
2021/09/28 07:53:07;;;;;;;7.43;0.57;;;;;;;14.68;100.00;99664.38;5073403;28;20032;-48
2021/09/28 07:56:11;;;;;;;5.25;0.25;;;;;;;14.77;100.00;99661.28;5073801;28;20047;-48
2021/09/28 07:59:13;;;;;;;2.15;0.82;;;;;;;14.72;100.00;99659.28;5073273;28;20132;-48
2021/09/28 08:02:19;;;;;;;1.25;0.60;;;;;;;14.60;100.00;99657.72;5073593;28;20047;-48
2021/09/28 08:05:22;;;;;;;3.30;0.40;;;;;;;14.82;100.00;99660.53;5073184;28;20157;-48
2021/09/28 08:08:25;;;;;;;0.63;0.47;;;;;;;14.83;100.00;99659.28;5073131;28;20043;-48
2021/09/28 08:11:28;;;;;;;2.88;1.33;;;;;;;14.91;100.00;99654.69;5073319;28;20066;-49
2021/09/28 08:14:30;;;;;;;1.02;0.63;;;;;;;14.98;100.00;99651.38;5073708;28;20035;-49
2021/09/28 08:17:33;;;;;;;1.85;0.75;;;;;;;14.88;100.00;99644.47;5073575;28;20047;-49
2021/09/28 08:20:37;;;;;;;6.22;0.70;;;;;;;14.89;100.00;99654.44;5073107;28;20090;-49
2021/09/28 08:23:40;;;;;;;4.07;0.70;;;;;;;15.01;100.00;99652.38;5073042;28;20337;-48
2021/09/28 08:30:08;;;;;;;0.90;0.52;;;;;;;15.21;100.00;99643.69;5073427;28;20149;-48
2021/09/28 08:33:11;;;;;;;2.55;0.90;;;;;;;15.42;100.00;99646.97;5073683;28;20052;-49
2021/09/28 08:36:15;;;;;;;2.60;0.45;;;;;;;15.47;100.00;99643.41;5073102;28;20074;-48
2021/09/28 08:39:18;;;;;;;0.82;0.57;;;;;;;15.46;100.00;99641.88;5073293;28;20047;-49
2021/09/28 08:42:22;;;;;;;0.93;0.47;;;;;;;15.47;100.00;99620.94;5073245;28;20373;-48
2021/09/28 08:45:25;;;;;;;3.47;0.90;;;;;;;15.54;100.00;99620.41;5073197;28;20055;-47
2021/09/28 08:48:28;;;;;;;8.10;1.20;;;;;;;15.69;100.00;99623.69;5072773;28;20062;-48
2021/09/28 08:51:32;;;;;;;7.03;0.63;;;;;;;15.66;100.00;99627.50;5072426;28;20085;-48
2021/09/28 08:54:35;;;;;;;4.18;1.08;;;;;;;15.69;100.00;99626.50;5073036;28;20115;-48
2021/09/28 08:57:39;;;;;;;0.40;0.40;;;;;;;15.74;100.00;99617.28;5073135;28;20075;-48
2021/09/28 09:00:42;;;;;;;1.13;0.28;;;;;;;15.71;100.00;99623.94;5073027;28;20768;-49
2021/09/28 09:03:45;;;;;;;11.77;2.22;;;;;;;15.88;100.00;99619.78;5072922;28;20291;-49
2021/09/28 09:06:48;;;;;;;12.05;2.22;;;;;;;15.80;100.00;99620.84;5072505;28;20094;-49
2021/09/28 09:09:51;;;;;;;0.65;0.45;;;;;;;15.39;100.00;99617.13;5072323;28;20055;-46
2021/09/28 09:12:54;;;;;;;2.13;0.82;;;;;;;15.67;100.00;99612.22;5072801;28;20098;-47
2021/09/28 09:15:58;;;;;;;5.70;0.60;;;;;;;15.82;100.00;99615.47;5072683;28;20066;-47
2021/09/28 09:19:27;;;;;;;1.52;0.82;;;;;;;16.02;100.00;99612.31;5073580;28;20060;-48
2021/09/28 09:22:32;;;;;;;4.72;0.93;;;;;;;16.18;100.00;99597.38;5076730;28;20135;-48
2021/09/28 09:25:35;;;;;;;5.97;1.45;;;;;;;16.37;100.00;99600.34;5076627;28;20043;-48
2021/09/28 09:28:48;;;;;;;2.67;0.60;;;;;;;16.38;100.00;99605.44;5076622;28;20132;-49
2021/09/28 09:31:54;;;;;;;7.03;0.77;;;;;;;16.37;100.00;99595.47;5076697;28;20043;-49
2021/09/28 09:34:57;;;;;;;3.88;1.08;;;;;;;16.32;100.00;99587.84;5076332;28;20435;-48
2021/09/28 09:38:12;;;;;;;3.72;0.30;;;;;;;16.41;100.00;99590.34;5076386;28;20492;-48
2021/09/28 09:41:16;;;;;;;1.52;0.90;;;;;;;16.52;100.00;99581.84;5076302;28;20048;-49
2021/09/28 09:44:19;;;;;;;2.78;0.52;;;;;;;16.63;100.00;99583.81;5076462;28;20044;-49
2021/09/28 09:47:30;;;;;;;1.00;0.52;;;;;;;16.64;100.00;99569.22;5076167;28;20083;-48
2021/09/28 09:50:36;;;;;;;3.50;0.50;;;;;;;16.72;100.00;99563.03;5076204;28;20056;-49
2021/09/28 09:53:59;;;;;;;0.85;0.47;;;;;;;16.73;100.00;99558.94;5075931;28;20135;-48
2021/09/28 09:57:06;;;;;;;0.35;0.35;;;;;;;16.71;100.00;99551.03;5076097;28;20047;-48
2021/09/28 10:00:10;;;;;;;1.38;0.63;;;;;;;16.64;100.00;99552.38;5056454;28;20078;-48
2021/09/28 10:03:13;;;;;;;1.80;0.45;;;;;;;16.55;100.00;99543.50;5056215;28;20369;-48
2021/09/28 10:06:16;;;;;;;2.28;0.93;;;;;;;16.49;100.00;99551.94;5056002;28;20078;-48
2021/09/28 10:09:25;;;;;;;2.38;0.77;;;;;;;16.36;100.00;99539.78;5056057;28;20047;-48
2021/09/28 10:12:36;;;;;;;0.40;0.30;;;;;;;16.18;100.00;99535.56;5055986;28;20427;-48
2021/09/28 10:15:39;;;;;;;8.25;1.50;;;;;;;16.10;100.00;99531.81;5055902;28;20048;-48
2021/09/28 10:18:41;;;;;;;9.80;0.95;;;;;;;16.12;100.00;99529.25;5055821;28;20094;-48
2021/09/28 10:21:45;;;;;;;10.88;1.08;;;;;;;16.18;100.00;99532.75;5055482;28;20527;-48
2021/09/28 10:24:48;;;;;;;1.55;0.73;;;;;;;16.12;100.00;99515.19;5055926;28;20047;-48
2021/09/28 10:27:52;;;;;;;1.20;0.50;;;;;;;16.28;100.00;99522.75;5055439;28;20086;-48
2021/09/28 10:30:55;;;;;;;3.13;0.95;;;;;;;16.36;100.00;99518.06;5054949;28;20044;-48
2021/09/28 10:33:59;;;;;;;10.57;1.35;;;;;;;16.42;100.00;99513.16;5055419;28;20036;-48
2021/09/28 10:37:02;;;;;;;3.50;0.85;;;;;;;16.38;100.00;99501.44;5055452;28;20092;-48
2021/09/28 10:40:05;;;;;;;12.63;1.52;;;;;;;16.39;100.00;99500.19;5055756;28;20051;-48
2021/09/28 10:43:24;;;;;;;1.80;0.65;;;;;;;16.42;100.00;99501.16;5055523;28;20040;-48
2021/09/28 10:46:40;;;;;;;2.33;0.63;;;;;;;16.50;100.00;99491.66;5055187;28;20083;-48
2021/09/28 10:49:43;;;;;;;15.65;0.85;;;;;;;16.53;100.00;99479.38;5055256;28;20047;-48
2021/09/28 10:52:46;;;;;;;0.40;0.25;;;;;;;16.52;100.00;99475.00;5054834;28;20099;-48
2021/09/28 10:56:01;;;;;;;1.52;0.45;;;;;;;16.51;100.00;99479.13;5055100;28;20043;-48
2021/09/28 10:59:04;;;;;;;2.03;1.30;;;;;;;16.42;100.00;99473.81;5070256;28;20089;-48
2021/09/28 11:02:08;;;;;;;1.40;0.85;;;;;;;16.46;100.00;99468.66;5075440;28;20163;-48
2021/09/28 11:05:31;;;;;;;2.00;0.90;;;;;;;16.29;100.00;99484.91;5074906;28;20416;-48
2021/09/28 11:08:36;;;;;;;3.90;1.58;;;;;;;16.11;100.00;99471.53;5074760;28;20412;-49
2021/09/28 11:11:40;;;;;;;9.15;2.53;;;;;;;15.84;100.00;99464.06;5073980;28;20055;-48
2021/09/28 11:14:43;;;;;;;7.07;1.25;;;;;;;15.80;100.00;99466.41;5074833;28;20055;-49
2021/09/28 11:17:46;;;;;;;3.65;1.17;;;;;;;15.69;100.00;99474.88;5072006;28;20055;-48
2021/09/28 11:20:49;;;;;;;2.80;0.75;;;;;;;15.65;100.00;99468.78;5074989;28;20075;-49
2021/09/28 11:23:55;;;;;;;2.22;0.57;;;;;;;15.66;100.00;99459.06;5073213;28;20075;-49
2021/09/28 11:27:12;;;;;;;4.53;1.25;;;;;;;15.67;100.00;99455.75;5073325;28;20106;-48
2021/09/28 11:30:15;;;;;;;2.75;1.20;;;;;;;15.62;100.00;99452.97;5074693;28;20055;-48
2021/09/28 11:33:19;;;;;;;2.05;0.80;;;;;;;15.55;100.00;99445.13;5074529;28;20066;-49
2021/09/28 11:36:22;;;;;;;6.97;1.20;;;;;;;15.61;100.00;99446.63;5074434;28;20393;-49
2021/09/28 11:39:26;;;;;;;10.13;2.08;;;;;;;15.68;100.00;99439.69;5074023;28;20043;-49
2021/09/28 11:42:32;;;;;;;11.60;2.90;;;;;;;15.74;100.00;99426.38;5073098;28;20134;-48
2021/09/28 11:45:35;;;;;;;8.25;3.13;;;;;;;15.90;100.00;99414.25;5073214;28;20047;-50
2021/09/28 11:48:43;;;;;;;9.60;2.45;;;;;;;16.16;100.00;99417.34;5073615;28;20071;-49
2021/09/28 11:51:48;;;;;;;4.50;1.60;;;;;;;16.34;100.00;99405.41;5074071;28;20035;-49
2021/09/28 11:54:52;;;;;;;4.00;2.22;;;;;;;16.47;100.00;99396.34;5073955;28;20149;-48
2021/09/28 11:57:55;;;;;;;6.22;0.93;;;;;;;16.74;100.00;99391.75;5073801;28;20051;-49
2021/09/28 12:00:58;;;;;;;1.65;0.73;;;;;;;16.70;100.00;99386.41;5073999;28;20067;-49
2021/09/28 12:10:52;;;;;;;4.13;1.48;;;;;;;16.50;100.00;99367.22;5073703;28;20511;-49
2021/09/28 12:13:55;;;;;;;1.83;1.25;;;;;;;16.53;100.00;99364.09;5073435;28;20051;-49
2021/09/28 12:17:15;;;;;;;0.20;0.20;;;;;;;16.61;100.00;99356.59;5073224;28;20052;-49
2021/09/28 12:20:22;;;;;;;15.63;1.15;;;;;;;16.49;100.00;99343.94;5073573;28;20114;-49
2021/09/28 12:23:25;;;;;;;7.53;1.55;;;;;;;16.40;100.00;99346.34;5072378;28;20048;-49
2021/09/28 12:26:28;;;;;;;1.17;0.60;;;;;;;16.34;100.00;99331.59;5073321;28;20495;-49
2021/09/28 12:29:39;;;;;;;2.38;0.90;;;;;;;16.23;100.00;99329.66;5073038;28;20070;-49
2021/09/28 12:32:48;;;;;;;1.70;0.63;;;;;;;16.24;100.00;99322.75;5073302;28;20093;-50
2021/09/28 12:35:56;;;;;;;2.22;0.75;;;;;;;16.17;100.00;99306.50;5072921;28;20527;-49
2021/09/28 12:39:10;;;;;;;0.93;0.47;;;;;;;16.11;100.00;99291.75;5073383;28;20054;-49
2021/09/28 12:42:20;;;;;;;0.40;0.35;;;;;;;16.19;100.00;99297.53;5073491;28;20062;-50
2021/09/28 12:45:23;;;;;;;0.80;0.20;;;;;;;16.17;100.00;99298.06;5072601;28;20058;-50
2021/09/28 12:48:40;;;;;;;8.57;0.38;;;;;;;16.13;100.00;99291.97;5073131;28;20178;-50
2021/09/28 12:51:46;;;;;;;0.98;0.90;;;;;;;16.07;100.00;99291.25;5068709;28;20051;-50
2021/09/28 12:54:57;;;;;;;0.45;0.40;;;;;;;15.89;100.00;99286.34;5072281;28;20405;-50
2021/09/28 12:58:03;;;;;;;0.40;0.20;;;;;;;15.77;100.00;99280.09;5059572;28;20102;-51
2021/09/28 13:01:07;;;;;;;9.52;0.30;;;;;;;15.69;100.00;99272.75;5052387;28;20056;-51
2021/09/28 13:04:15;;;;;;;5.38;1.50;;;;;;;15.57;100.00;99276.97;5051528;28;20283;-51
2021/09/28 13:07:18;;;;;;;0.70;0.32;;;;;;;15.51;100.00;99262.97;5071289;28;20047;-52
2021/09/28 13:10:23;;;;;;;0.88;0.45;;;;;;;15.37;100.00;99277.34;5071256;28;20189;-52
2021/09/28 13:13:30;;;;;;;1.85;0.50;;;;;;;15.35;100.00;99279.94;5071823;28;20416;-51
2021/09/28 13:16:34;;;;;;;13.30;1.05;;;;;;;15.41;100.00;99283.44;5070336;28;20044;-51
2021/09/28 13:19:38;;;;;;;7.95;0.57;;;;;;;15.48;100.00;99280.09;5072917;28;20495;-52
2021/09/28 13:22:44;;;;;;;1.40;0.47;;;;;;;15.63;100.00;99274.88;5072394;28;20504;-52
2021/09/28 13:25:55;;;;;;;0.20;0.10;;;;;;;15.59;100.00;99268.78;5072512;28;20077;-52
2021/09/28 13:29:00;;;;;;;1.00;0.45;;;;;;;15.56;100.00;99258.59;5071718;28;20059;-52
2021/09/28 13:32:10;;;;;;;1.55;0.47;;;;;;;14.22;100.00;99274.69;5072839;28;20110;-52
2021/09/28 13:35:16;;;;;;;1.23;0.55;;;;;;;13.92;100.00;99307.34;5070048;28;20043;-51
2021/09/28 13:38:19;;;;;;;0.57;0.40;;;;;;;13.42;100.00;99310.94;5072590;28;20089;-51
2021/09/28 13:41:22;;;;;;;2.65;0.22;;;;;;;12.86;100.00;99317.69;5071126;28;20070;-51
2021/09/28 13:44:24;;;;;;;0.10;0.10;;;;;;;12.76;100.00;99305.19;5071435;28;20039;-49
2021/09/28 13:47:27;;;;;;;1.65;0.50;;;;;;;12.86;100.00;99304.47;5072172;28;20048;-51
2021/09/28 15:05:46;;;;;;;0.75;0.20;;;;;;;12.28;100.00;99282.94;6233173;22;1318500;-53
2021/09/28 15:08:50;;;;;;;0.30;0.30;;;;;;;12.39;100.00;99279.44;6254245;23;20434;-53
2021/09/28 15:11:52;;;;;;;0.20;0.10;;;;;;;12.38;100.00;99270.31;6235586;23;20344;-52
2021/09/28 15:14:56;;;;;;;0.60;0.35;;;;;;;12.51;100.00;99261.44;6253021;23;20023;-52
2021/09/28 15:18:00;;;;;;;1.48;0.77;;;;;;;12.49;100.00;99256.38;6235099;23;20046;-52
2021/09/28 15:21:03;;;;;;;0.38;0.38;;;;;;;12.48;100.00;99245.69;6235576;23;20027;-52
2021/09/28 15:24:06;;;;;;;1.20;0.70;;;;;;;12.59;100.00;99245.72;6254137;23;20018;-53
2021/09/28 15:27:10;;;;;;;3.85;0.57;;;;;;;12.67;100.00;99235.56;6254351;23;20023;-53
2021/09/28 15:30:13;;;;;;;3.65;0.85;;;;;;;12.67;100.00;99230.75;6218282;23;20104;-52
2021/09/28 15:33:16;;;;;;;4.03;1.33;;;;;;;12.80;100.00;99221.88;6254370;23;20352;-51
2021/09/28 15:36:19;;;;;;;0.25;0.15;;;;;;;12.72;100.00;99209.69;6254618;23;20027;-51
2021/09/28 15:39:22;;;;;;;1.02;0.57;;;;;;;12.79;100.00;99192.44;6235480;23;20069;-51
2021/09/28 15:42:26;;;;;;;1.75;0.47;;;;;;;12.82;100.00;99183.06;6235067;23;20478;-51
2021/09/28 15:45:29;;;;;;;0.10;0.10;;;;;;;13.08;100.00;99175.19;6252222;23;20086;-51